sensor_id;sensor_type;location;lat;lon;timestamp;temperature;humidity
71801;HTU21D;59647;55.838;37.292;2022-12-15T00:02:24;-1.44;95.16
71801;HTU21D;59647;55.838;37.292;2022-12-15T00:05:08;-1.46;95.43
71801;HTU21D;59647;55.838;37.292;2022-12-15T00:07:52;-1.46;95.33
71801;HTU21D;59647;55.838;37.292;2022-12-15T00:10:37;-1.44;95.55
71801;HTU21D;59647;55.838;37.292;2022-12-15T00:13:21;-1.42;95.26
71801;HTU21D;59647;55.838;37.292;2022-12-15T00:16:06;-1.40;95.72
71801;HTU21D;59647;55.838;37.292;2022-12-15T00:18:51;-1.34;95.85
71801;HTU21D;59647;55.838;37.292;2022-12-15T00:21:35;-1.45;95.12
71801;HTU21D;59647;55.838;37.292;2022-12-15T00:24:20;-1.40;95.71
71801;HTU21D;59647;55.838;37.292;2022-12-15T00:27:04;-1.34;96.04
71801;HTU21D;59647;55.838;37.292;2022-12-15T00:29:49;-1.30;95.86
71801;HTU21D;59647;55.838;37.292;2022-12-15T00:32:34;-1.29;95.63
71801;HTU21D;59647;55.838;37.292;2022-12-15T00:35:18;-1.27;95.60
71801;HTU21D;59647;55.838;37.292;2022-12-15T00:38:11;-1.24;95.49
71801;HTU21D;59647;55.838;37.292;2022-12-15T00:40:56;-1.26;95.42
71801;HTU21D;59647;55.838;37.292;2022-12-15T00:43:25;-1.29;95.40
71801;HTU21D;59647;55.838;37.292;2022-12-15T00:45:51;-1.29;95.60
71801;HTU21D;59647;55.838;37.292;2022-12-15T00:48:35;-1.34;95.30
71801;HTU21D;59647;55.838;37.292;2022-12-15T00:51:01;-1.41;95.30
71801;HTU21D;59647;55.838;37.292;2022-12-15T00:53:27;-1.45;95.81
71801;HTU21D;59647;55.838;37.292;2022-12-15T00:56:11;-1.52;95.62
71801;HTU21D;59647;55.838;37.292;2022-12-15T00:58:56;-1.62;95.36
71801;HTU21D;59647;55.838;37.292;2022-12-15T01:01:41;-1.71;95.57
71801;HTU21D;59647;55.838;37.292;2022-12-15T01:04:25;-1.75;95.69
71801;HTU21D;59647;55.838;37.292;2022-12-15T01:07:10;-1.80;96.20
71801;HTU21D;59647;55.838;37.292;2022-12-15T01:09:54;-1.88;96.13
71801;HTU21D;59647;55.838;37.292;2022-12-15T01:12:39;-1.90;96.52
71801;HTU21D;59647;55.838;37.292;2022-12-15T01:15:23;-1.92;96.54
71801;HTU21D;59647;55.838;37.292;2022-12-15T01:18:07;-1.94;96.29
71801;HTU21D;59647;55.838;37.292;2022-12-15T01:20:59;-1.97;96.55
71801;HTU21D;59647;55.838;37.292;2022-12-15T01:23:25;-2.00;96.47
71801;HTU21D;59647;55.838;37.292;2022-12-15T01:25:52;-1.99;96.83
71801;HTU21D;59647;55.838;37.292;2022-12-15T01:28:19;-1.99;96.55
71801;HTU21D;59647;55.838;37.292;2022-12-15T01:30:47;-2.02;96.68
71801;HTU21D;59647;55.838;37.292;2022-12-15T01:33:14;-1.95;96.92
71801;HTU21D;59647;55.838;37.292;2022-12-15T01:35:40;-1.90;96.82
71801;HTU21D;59647;55.838;37.292;2022-12-15T01:38:06;-1.90;96.40
71801;HTU21D;59647;55.838;37.292;2022-12-15T01:40:33;-1.95;96.22
71801;HTU21D;59647;55.838;37.292;2022-12-15T01:43:23;-1.98;96.34
71801;HTU21D;59647;55.838;37.292;2022-12-15T01:45:54;-1.98;96.68
71801;HTU21D;59647;55.838;37.292;2022-12-15T01:48:41;-1.95;96.71
71801;HTU21D;59647;55.838;37.292;2022-12-15T01:56:30;-1.75;96.46
71801;HTU21D;59647;55.838;37.292;2022-12-15T01:58:59;-1.68;96.59
71801;HTU21D;59647;55.838;37.292;2022-12-15T02:01:27;-1.67;96.28
71801;HTU21D;59647;55.838;37.292;2022-12-15T02:03:52;-1.62;96.38
71801;HTU21D;59647;55.838;37.292;2022-12-15T02:06:19;-1.58;96.29
71801;HTU21D;59647;55.838;37.292;2022-12-15T02:08:48;-1.62;95.68
71801;HTU21D;59647;55.838;37.292;2022-12-15T02:14:04;-1.65;95.82
71801;HTU21D;59647;55.838;37.292;2022-12-15T02:22:21;-1.47;96.52
71801;HTU21D;59647;55.838;37.292;2022-12-15T02:25:32;-1.41;96.42
71801;HTU21D;59647;55.838;37.292;2022-12-15T02:28:09;-1.38;96.12
71801;HTU21D;59647;55.838;37.292;2022-12-15T02:33:50;-1.35;96.06
71801;HTU21D;59647;55.838;37.292;2022-12-15T02:36:34;-1.30;95.79
71801;HTU21D;59647;55.838;37.292;2022-12-15T02:39:02;-1.29;95.99
71801;HTU21D;59647;55.838;37.292;2022-12-15T02:44:14;-1.16;95.73
71801;HTU21D;59647;55.838;37.292;2022-12-15T02:49:35;-1.09;95.97
71801;HTU21D;59647;55.838;37.292;2022-12-15T02:58:19;-0.99;95.10
71801;HTU21D;59647;55.838;37.292;2022-12-15T03:00:56;-0.98;95.17
71801;HTU21D;59647;55.838;37.292;2022-12-15T03:03:23;-0.99;94.98
71801;HTU21D;59647;55.838;37.292;2022-12-15T03:05:50;-1.00;95.17
71801;HTU21D;59647;55.838;37.292;2022-12-15T03:08:22;-0.98;95.20
71801;HTU21D;59647;55.838;37.292;2022-12-15T03:10:50;-0.95;95.30
71801;HTU21D;59647;55.838;37.292;2022-12-15T03:13:21;-0.95;95.15
71801;HTU21D;59647;55.838;37.292;2022-12-15T03:15:47;-0.93;95.10
71801;HTU21D;59647;55.838;37.292;2022-12-15T03:18:13;-0.93;94.99
71801;HTU21D;59647;55.838;37.292;2022-12-15T03:20:39;-0.91;94.92
71801;HTU21D;59647;55.838;37.292;2022-12-15T03:23:04;-0.89;95.11
71801;HTU21D;59647;55.838;37.292;2022-12-15T03:25:30;-0.86;95.26
71801;HTU21D;59647;55.838;37.292;2022-12-15T03:27:56;-0.82;95.17
71801;HTU21D;59647;55.838;37.292;2022-12-15T03:30:22;-0.83;94.70
71801;HTU21D;59647;55.838;37.292;2022-12-15T03:32:48;-0.84;94.84
71801;HTU21D;59647;55.838;37.292;2022-12-15T03:35:13;-0.85;94.73
71801;HTU21D;59647;55.838;37.292;2022-12-15T03:37:40;-0.86;94.32
71801;HTU21D;59647;55.838;37.292;2022-12-15T03:40:06;-0.89;94.52
71801;HTU21D;59647;55.838;37.292;2022-12-15T03:42:32;-0.88;94.86
71801;HTU21D;59647;55.838;37.292;2022-12-15T03:45:24;-0.84;95.04
71801;HTU21D;59647;55.838;37.292;2022-12-15T03:47:51;-0.87;94.35
71801;HTU21D;59647;55.838;37.292;2022-12-15T03:50:19;-0.85;94.86
71801;HTU21D;59647;55.838;37.292;2022-12-15T03:52:52;-0.84;94.66
71801;HTU21D;59647;55.838;37.292;2022-12-15T03:55:19;-0.82;94.92
71801;HTU21D;59647;55.838;37.292;2022-12-15T03:57:45;-0.79;94.64
71801;HTU21D;59647;55.838;37.292;2022-12-15T04:00:12;-0.79;94.68
71801;HTU21D;59647;55.838;37.292;2022-12-15T04:02:43;-0.75;94.81
71801;HTU21D;59647;55.838;37.292;2022-12-15T04:05:15;-0.72;94.75
71801;HTU21D;59647;55.838;37.292;2022-12-15T04:07:42;-0.74;94.02
71801;HTU21D;59647;55.838;37.292;2022-12-15T04:10:08;-0.74;94.49
71801;HTU21D;59647;55.838;37.292;2022-12-15T04:12:34;-0.69;94.66
71801;HTU21D;59647;55.838;37.292;2022-12-15T04:14:59;-0.71;94.33
71801;HTU21D;59647;55.838;37.292;2022-12-15T04:17:25;-0.71;94.16
71801;HTU21D;59647;55.838;37.292;2022-12-15T04:19:51;-0.73;94.27
71801;HTU21D;59647;55.838;37.292;2022-12-15T04:22:41;-0.77;93.63
71801;HTU21D;59647;55.838;37.292;2022-12-15T04:25:10;-0.75;94.66
71801;HTU21D;59647;55.838;37.292;2022-12-15T04:27:56;-0.74;94.39
71801;HTU21D;59647;55.838;37.292;2022-12-15T04:30:44;-0.76;94.11
71801;HTU21D;59647;55.838;37.292;2022-12-15T04:33:29;-0.76;94.46
71801;HTU21D;59647;55.838;37.292;2022-12-15T04:36:14;-0.79;94.48
71801;HTU21D;59647;55.838;37.292;2022-12-15T04:38:59;-0.77;94.33
71801;HTU21D;59647;55.838;37.292;2022-12-15T04:41:44;-0.77;94.46
71801;HTU21D;59647;55.838;37.292;2022-12-15T04:44:29;-0.73;94.79
71801;HTU21D;59647;55.838;37.292;2022-12-15T04:47:13;-0.73;94.63
71801;HTU21D;59647;55.838;37.292;2022-12-15T04:49:58;-0.71;94.43
71801;HTU21D;59647;55.838;37.292;2022-12-15T04:52:42;-0.74;94.19
71801;HTU21D;59647;55.838;37.292;2022-12-15T04:55:27;-0.76;94.57
71801;HTU21D;59647;55.838;37.292;2022-12-15T04:58:11;-0.76;94.30
71801;HTU21D;59647;55.838;37.292;2022-12-15T05:00:56;-0.77;94.54
71801;HTU21D;59647;55.838;37.292;2022-12-15T05:03:42;-0.77;94.49
71801;HTU21D;59647;55.838;37.292;2022-12-15T05:06:26;-0.76;94.49
71801;HTU21D;59647;55.838;37.292;2022-12-15T05:09:11;-0.76;94.30
71801;HTU21D;59647;55.838;37.292;2022-12-15T05:11:55;-0.81;94.10
71801;HTU21D;59647;55.838;37.292;2022-12-15T05:14:41;-0.77;94.80
71801;HTU21D;59647;55.838;37.292;2022-12-15T05:17:25;-0.72;94.75
71801;HTU21D;59647;55.838;37.292;2022-12-15T05:20:10;-0.75;94.22
71801;HTU21D;59647;55.838;37.292;2022-12-15T05:22:55;-0.75;94.07
71801;HTU21D;59647;55.838;37.292;2022-12-15T05:25:40;-0.75;94.67
71801;HTU21D;59647;55.838;37.292;2022-12-15T05:28:25;-0.73;94.44
71801;HTU21D;59647;55.838;37.292;2022-12-15T05:31:10;-0.72;94.17
71801;HTU21D;59647;55.838;37.292;2022-12-15T05:33:55;-0.75;94.23
71801;HTU21D;59647;55.838;37.292;2022-12-15T05:36:21;-0.73;94.62
71801;HTU21D;59647;55.838;37.292;2022-12-15T05:38:49;-0.71;94.40
71801;HTU21D;59647;55.838;37.292;2022-12-15T05:41:16;-0.73;94.43
71801;HTU21D;59647;55.838;37.292;2022-12-15T05:43:43;-0.72;94.33
71801;HTU21D;59647;55.838;37.292;2022-12-15T05:46:09;-0.75;93.90
71801;HTU21D;59647;55.838;37.292;2022-12-15T05:48:34;-0.76;94.30
71801;HTU21D;59647;55.838;37.292;2022-12-15T05:51:08;-0.74;94.14
71801;HTU21D;59647;55.838;37.292;2022-12-15T05:53:36;-0.74;94.16
71801;HTU21D;59647;55.838;37.292;2022-12-15T05:56:07;-0.72;94.10
71801;HTU21D;59647;55.838;37.292;2022-12-15T05:58:33;-0.79;93.37
71801;HTU21D;59647;55.838;37.292;2022-12-15T06:01:13;-0.80;93.37
71801;HTU21D;59647;55.838;37.292;2022-12-15T06:03:40;-0.83;93.07
71801;HTU21D;59647;55.838;37.292;2022-12-15T06:06:09;-0.81;93.41
71801;HTU21D;59647;55.838;37.292;2022-12-15T06:08:37;-0.80;92.70
71801;HTU21D;59647;55.838;37.292;2022-12-15T06:11:03;-0.85;92.84
71801;HTU21D;59647;55.838;37.292;2022-12-15T06:13:30;-0.79;93.59
71801;HTU21D;59647;55.838;37.292;2022-12-15T06:16:01;-0.73;93.66
71801;HTU21D;59647;55.838;37.292;2022-12-15T06:18:30;-0.72;93.27
71801;HTU21D;59647;55.838;37.292;2022-12-15T06:21:02;-0.72;92.93
71801;HTU21D;59647;55.838;37.292;2022-12-15T06:23:29;-0.68;93.44
71801;HTU21D;59647;55.838;37.292;2022-12-15T06:25:56;-0.71;91.79
71801;HTU21D;59647;55.838;37.292;2022-12-15T06:28:22;-0.77;92.70
71801;HTU21D;59647;55.838;37.292;2022-12-15T06:30:54;-0.83;91.56
71801;HTU21D;59647;55.838;37.292;2022-12-15T06:33:21;-0.83;91.69
71801;HTU21D;59647;55.838;37.292;2022-12-15T06:35:48;-0.88;91.53
71801;HTU21D;59647;55.838;37.292;2022-12-15T06:38:14;-0.91;91.21
71801;HTU21D;59647;55.838;37.292;2022-12-15T06:40:40;-0.94;92.18
71801;HTU21D;59647;55.838;37.292;2022-12-15T06:43:07;-0.89;92.28
71801;HTU21D;59647;55.838;37.292;2022-12-15T06:45:34;-0.93;90.46
71801;HTU21D;59647;55.838;37.292;2022-12-15T06:48:00;-0.94;92.05
71801;HTU21D;59647;55.838;37.292;2022-12-15T06:50:26;-0.94;90.97
71801;HTU21D;59647;55.838;37.292;2022-12-15T06:52:52;-0.93;92.07
71801;HTU21D;59647;55.838;37.292;2022-12-15T06:55:18;-0.88;92.03
71801;HTU21D;59647;55.838;37.292;2022-12-15T06:57:46;-0.86;92.03
71801;HTU21D;59647;55.838;37.292;2022-12-15T07:00:12;-0.85;91.50
71801;HTU21D;59647;55.838;37.292;2022-12-15T07:02:42;-0.84;91.73
71801;HTU21D;59647;55.838;37.292;2022-12-15T07:05:08;-0.84;91.72
71801;HTU21D;59647;55.838;37.292;2022-12-15T07:07:34;-0.82;91.82
71801;HTU21D;59647;55.838;37.292;2022-12-15T07:10:00;-0.79;92.39
71801;HTU21D;59647;55.838;37.292;2022-12-15T07:12:26;-0.79;91.76
71801;HTU21D;59647;55.838;37.292;2022-12-15T07:14:52;-0.77;91.16
71801;HTU21D;59647;55.838;37.292;2022-12-15T07:17:17;-0.76;91.87
71801;HTU21D;59647;55.838;37.292;2022-12-15T07:19:43;-0.87;89.27
71801;HTU21D;59647;55.838;37.292;2022-12-15T07:22:09;-0.91;90.49
71801;HTU21D;59647;55.838;37.292;2022-12-15T07:24:35;-0.96;90.88
71801;HTU21D;59647;55.838;37.292;2022-12-15T07:27:00;-0.96;90.34
71801;HTU21D;59647;55.838;37.292;2022-12-15T07:29:26;-1.00;90.57
71801;HTU21D;59647;55.838;37.292;2022-12-15T07:31:52;-0.96;91.87
71801;HTU21D;59647;55.838;37.292;2022-12-15T07:34:18;-0.91;91.46
71801;HTU21D;59647;55.838;37.292;2022-12-15T07:36:44;-0.91;91.25
71801;HTU21D;59647;55.838;37.292;2022-12-15T07:39:10;-0.89;89.97
71801;HTU21D;59647;55.838;37.292;2022-12-15T07:41:37;-0.88;91.27
71801;HTU21D;59647;55.838;37.292;2022-12-15T07:44:03;-1.02;88.37
71801;HTU21D;59647;55.838;37.292;2022-12-15T07:46:28;-1.01;90.84
71801;HTU21D;59647;55.838;37.292;2022-12-15T07:48:54;-1.04;89.62
71801;HTU21D;59647;55.838;37.292;2022-12-15T07:51:20;-1.14;88.14
71801;HTU21D;59647;55.838;37.292;2022-12-15T07:53:47;-1.30;89.36
71801;HTU21D;59647;55.838;37.292;2022-12-15T07:56:14;-1.35;89.31
71801;HTU21D;59647;55.838;37.292;2022-12-15T07:58:40;-1.35;90.45
71801;HTU21D;59647;55.838;37.292;2022-12-15T08:01:08;-1.30;90.38
71801;HTU21D;59647;55.838;37.292;2022-12-15T08:03:35;-1.24;90.84
71801;HTU21D;59647;55.838;37.292;2022-12-15T08:06:09;-1.24;89.48
71801;HTU21D;59647;55.838;37.292;2022-12-15T08:08:35;-1.24;88.79
71801;HTU21D;59647;55.838;37.292;2022-12-15T08:11:09;-1.30;88.11
71801;HTU21D;59647;55.838;37.292;2022-12-15T08:13:36;-1.28;89.03
71801;HTU21D;59647;55.838;37.292;2022-12-15T08:16:02;-1.28;89.94
71801;HTU21D;59647;55.838;37.292;2022-12-15T08:18:28;-1.31;89.47
71801;HTU21D;59647;55.838;37.292;2022-12-15T08:20:54;-1.27;89.95
71801;HTU21D;59647;55.838;37.292;2022-12-15T08:23:20;-1.24;89.05
71801;HTU21D;59647;55.838;37.292;2022-12-15T08:25:45;-1.25;88.80
71801;HTU21D;59647;55.838;37.292;2022-12-15T08:28:12;-1.29;87.87
71801;HTU21D;59647;55.838;37.292;2022-12-15T08:30:37;-1.33;88.82
71801;HTU21D;59647;55.838;37.292;2022-12-15T08:33:03;-1.41;86.54
71801;HTU21D;59647;55.838;37.292;2022-12-15T08:35:29;-1.47;87.14
71801;HTU21D;59647;55.838;37.292;2022-12-15T08:37:55;-1.54;87.64
71801;HTU21D;59647;55.838;37.292;2022-12-15T08:40:21;-1.55;87.65
71801;HTU21D;59647;55.838;37.292;2022-12-15T08:42:47;-1.65;86.80
71801;HTU21D;59647;55.838;37.292;2022-12-15T08:45:12;-1.68;87.21
71801;HTU21D;59647;55.838;37.292;2022-12-15T08:47:38;-1.73;87.89
71801;HTU21D;59647;55.838;37.292;2022-12-15T08:50:06;-1.71;87.99
71801;HTU21D;59647;55.838;37.292;2022-12-15T08:52:33;-1.62;89.57
71801;HTU21D;59647;55.838;37.292;2022-12-15T08:54:59;-1.69;87.93
71801;HTU21D;59647;55.838;37.292;2022-12-15T08:57:25;-1.75;87.30
71801;HTU21D;59647;55.838;37.292;2022-12-15T08:59:51;-1.77;87.51
71801;HTU21D;59647;55.838;37.292;2022-12-15T09:02:17;-1.85;87.69
71801;HTU21D;59647;55.838;37.292;2022-12-15T09:04:43;-1.79;89.19
71801;HTU21D;59647;55.838;37.292;2022-12-15T09:07:10;-1.73;88.92
71801;HTU21D;59647;55.838;37.292;2022-12-15T09:09:36;-1.70;89.20
71801;HTU21D;59647;55.838;37.292;2022-12-15T09:12:02;-1.67;88.39
71801;HTU21D;59647;55.838;37.292;2022-12-15T09:14:28;-1.60;87.49
71801;HTU21D;59647;55.838;37.292;2022-12-15T09:16:54;-1.65;85.44
71801;HTU21D;59647;55.838;37.292;2022-12-15T09:19:20;-1.71;86.83
71801;HTU21D;59647;55.838;37.292;2022-12-15T09:21:46;-1.75;87.11
71801;HTU21D;59647;55.838;37.292;2022-12-15T09:24:13;-1.64;88.44
71801;HTU21D;59647;55.838;37.292;2022-12-15T09:26:39;-1.65;87.54
71801;HTU21D;59647;55.838;37.292;2022-12-15T09:29:10;-1.57;88.60
71801;HTU21D;59647;55.838;37.292;2022-12-15T09:31:36;-1.48;89.09
71801;HTU21D;59647;55.838;37.292;2022-12-15T09:34:02;-1.44;88.32
71801;HTU21D;59647;55.838;37.292;2022-12-15T09:36:30;-1.41;88.20
71801;HTU21D;59647;55.838;37.292;2022-12-15T09:38:57;-1.39;88.31
71801;HTU21D;59647;55.838;37.292;2022-12-15T09:41:25;-1.35;88.03
71801;HTU21D;59647;55.838;37.292;2022-12-15T09:43:59;-1.40;87.19
71801;HTU21D;59647;55.838;37.292;2022-12-15T09:52:22;-1.33;87.85
71801;HTU21D;59647;55.838;37.292;2022-12-15T09:54:49;-1.38;87.34
71801;HTU21D;59647;55.838;37.292;2022-12-15T09:57:39;-1.41;86.72
71801;HTU21D;59647;55.838;37.292;2022-12-15T10:05:47;-1.48;86.65
71801;HTU21D;59647;55.838;37.292;2022-12-15T10:08:19;-1.50;86.56
71801;HTU21D;59647;55.838;37.292;2022-12-15T10:11:55;-1.47;86.64
71801;HTU21D;59647;55.838;37.292;2022-12-15T10:14:05;-1.39;88.04
71801;HTU21D;59647;55.838;37.292;2022-12-15T10:16:42;-1.32;88.12
71801;HTU21D;59647;55.838;37.292;2022-12-15T10:21:41;-1.31;87.53
71801;HTU21D;59647;55.838;37.292;2022-12-15T10:24:15;-1.29;86.68
71801;HTU21D;59647;55.838;37.292;2022-12-15T10:26:52;-1.29;86.47
71801;HTU21D;59647;55.838;37.292;2022-12-15T10:29:40;-1.27;86.46
71801;HTU21D;59647;55.838;37.292;2022-12-15T10:35:17;-1.27;87.62
71801;HTU21D;59647;55.838;37.292;2022-12-15T10:37:45;-1.23;87.52
71801;HTU21D;59647;55.838;37.292;2022-12-15T10:40:17;-1.20;87.38
71801;HTU21D;59647;55.838;37.292;2022-12-15T10:42:46;-1.21;86.48
71801;HTU21D;59647;55.838;37.292;2022-12-15T10:45:37;-1.21;86.29
71801;HTU21D;59647;55.838;37.292;2022-12-15T10:48:04;-1.31;85.45
71801;HTU21D;59647;55.838;37.292;2022-12-15T10:50:32;-1.33;87.06
71801;HTU21D;59647;55.838;37.292;2022-12-15T10:52:58;-1.33;86.88
71801;HTU21D;59647;55.838;37.292;2022-12-15T10:58:00;-1.36;86.83
71801;HTU21D;59647;55.838;37.292;2022-12-15T11:00:31;-1.35;87.30
71801;HTU21D;59647;55.838;37.292;2022-12-15T11:02:58;-1.31;87.38
71801;HTU21D;59647;55.838;37.292;2022-12-15T11:05:25;-1.30;87.45
71801;HTU21D;59647;55.838;37.292;2022-12-15T11:08:11;-1.29;86.29
71801;HTU21D;59647;55.838;37.292;2022-12-15T11:10:54;-1.29;86.39
71801;HTU21D;59647;55.838;37.292;2022-12-15T11:13:39;-1.34;86.35
71801;HTU21D;59647;55.838;37.292;2022-12-15T11:16:14;-1.39;85.59
71801;HTU21D;59647;55.838;37.292;2022-12-15T11:18:51;-1.39;87.44
71801;HTU21D;59647;55.838;37.292;2022-12-15T11:24:15;-1.33;87.72
71801;HTU21D;59647;55.838;37.292;2022-12-15T11:31:59;-1.39;87.50
71801;HTU21D;59647;55.838;37.292;2022-12-15T11:34:34;-1.43;86.92
71801;HTU21D;59647;55.838;37.292;2022-12-15T11:56:10;-1.52;87.21
71801;HTU21D;59647;55.838;37.292;2022-12-15T12:14:47;-1.80;87.08
71801;HTU21D;59647;55.838;37.292;2022-12-15T12:17:47;-1.82;87.76
71801;HTU21D;59647;55.838;37.292;2022-12-15T12:20:19;-1.83;87.70
71801;HTU21D;59647;55.838;37.292;2022-12-15T12:25:24;-1.85;87.18
71801;HTU21D;59647;55.838;37.292;2022-12-15T12:28:04;-1.87;87.29
71801;HTU21D;59647;55.838;37.292;2022-12-15T12:30:41;-1.93;87.31
71801;HTU21D;59647;55.838;37.292;2022-12-15T12:36:01;-1.86;88.18
71801;HTU21D;59647;55.838;37.292;2022-12-15T12:38:34;-1.85;88.15
71801;HTU21D;59647;55.838;37.292;2022-12-15T12:44:12;-1.87;86.65
71801;HTU21D;59647;55.838;37.292;2022-12-15T12:46:47;-1.94;87.32
71801;HTU21D;59647;55.838;37.292;2022-12-15T12:49:27;-1.94;87.97
71801;HTU21D;59647;55.838;37.292;2022-12-15T12:51:57;-1.91;87.67
71801;HTU21D;59647;55.838;37.292;2022-12-15T13:04:42;-1.88;88.34
71801;HTU21D;59647;55.838;37.292;2022-12-15T13:07:32;-1.79;88.67
71801;HTU21D;59647;55.838;37.292;2022-12-15T13:12:55;-1.86;87.08
71801;HTU21D;59647;55.838;37.292;2022-12-15T13:20:39;-1.86;87.16
71801;HTU21D;59647;55.838;37.292;2022-12-15T13:31:24;-1.89;84.09
71801;HTU21D;59647;55.838;37.292;2022-12-15T13:33:55;-1.97;86.00
71801;HTU21D;59647;55.838;37.292;2022-12-15T13:42:07;-1.89;85.77
71801;HTU21D;59647;55.838;37.292;2022-12-15T13:44:46;-1.88;84.76
71801;HTU21D;59647;55.838;37.292;2022-12-15T13:47:28;-1.89;85.90
71801;HTU21D;59647;55.838;37.292;2022-12-15T13:49:58;-1.91;84.03
71801;HTU21D;59647;55.838;37.292;2022-12-15T13:54:58;-1.90;85.16
71801;HTU21D;59647;55.838;37.292;2022-12-15T13:57:24;-1.90;84.41
71801;HTU21D;59647;55.838;37.292;2022-12-15T13:59:58;-1.91;84.95
71801;HTU21D;59647;55.838;37.292;2022-12-15T14:02:33;-1.93;85.11
71801;HTU21D;59647;55.838;37.292;2022-12-15T14:05:13;-1.87;84.53
71801;HTU21D;59647;55.838;37.292;2022-12-15T14:07:42;-1.92;80.95
71801;HTU21D;59647;55.838;37.292;2022-12-15T14:12:48;-1.95;82.84
71801;HTU21D;59647;55.838;37.292;2022-12-15T14:15:16;-1.91;85.02
71801;HTU21D;59647;55.838;37.292;2022-12-15T14:17:49;-1.97;82.68
71801;HTU21D;59647;55.838;37.292;2022-12-15T14:20:20;-1.93;85.32
71801;HTU21D;59647;55.838;37.292;2022-12-15T14:22:46;-1.98;83.04
71801;HTU21D;59647;55.838;37.292;2022-12-15T14:25:20;-1.94;85.10
71801;HTU21D;59647;55.838;37.292;2022-12-15T14:27:47;-1.91;84.39
71801;HTU21D;59647;55.838;37.292;2022-12-15T14:32:40;-1.92;83.80
71801;HTU21D;59647;55.838;37.292;2022-12-15T14:35:15;-1.93;84.61
71801;HTU21D;59647;55.838;37.292;2022-12-15T14:37:43;-1.97;83.36
71801;HTU21D;59647;55.838;37.292;2022-12-15T14:40:16;-1.97;83.20
71801;HTU21D;59647;55.838;37.292;2022-12-15T14:42:42;-1.98;84.04
71801;HTU21D;59647;55.838;37.292;2022-12-15T14:45:30;-1.95;84.01
71801;HTU21D;59647;55.838;37.292;2022-12-15T14:47:59;-1.93;84.40
71801;HTU21D;59647;55.838;37.292;2022-12-15T14:50:26;-1.94;84.74
71801;HTU21D;59647;55.838;37.292;2022-12-15T14:53:05;-1.92;85.27
71801;HTU21D;59647;55.838;37.292;2022-12-15T14:55:37;-1.98;80.62
71801;HTU21D;59647;55.838;37.292;2022-12-15T15:00:55;-2.00;83.43
71801;HTU21D;59647;55.838;37.292;2022-12-15T15:05:52;-1.97;83.63
71801;HTU21D;59647;55.838;37.292;2022-12-15T15:08:30;-1.93;83.78
71801;HTU21D;59647;55.838;37.292;2022-12-15T15:11:00;-1.99;83.45
71801;HTU21D;59647;55.838;37.292;2022-12-15T15:13:38;-1.95;85.43
71801;HTU21D;59647;55.838;37.292;2022-12-15T15:16:07;-1.94;84.10
71801;HTU21D;59647;55.838;37.292;2022-12-15T15:18:38;-2.05;83.57
71801;HTU21D;59647;55.838;37.292;2022-12-15T15:21:05;-2.05;85.11
71801;HTU21D;59647;55.838;37.292;2022-12-15T15:23:32;-2.07;85.40
71801;HTU21D;59647;55.838;37.292;2022-12-15T15:28:41;-2.28;86.54
71801;HTU21D;59647;55.838;37.292;2022-12-15T15:31:28;-2.30;87.35
71801;HTU21D;59647;55.838;37.292;2022-12-15T15:33:56;-2.32;87.27
71801;HTU21D;59647;55.838;37.292;2022-12-15T15:36:34;-2.30;88.04
71801;HTU21D;59647;55.838;37.292;2022-12-15T15:39:02;-2.31;88.02
71801;HTU21D;59647;55.838;37.292;2022-12-15T15:41:30;-2.31;88.15
71801;HTU21D;59647;55.838;37.292;2022-12-15T15:43:58;-2.35;87.77
71801;HTU21D;59647;55.838;37.292;2022-12-15T15:46:31;-2.47;94.82
71801;HTU21D;59647;55.838;37.292;2022-12-15T15:49:01;-2.43;97.15
71801;HTU21D;59647;55.838;37.292;2022-12-15T15:51:30;-2.38;94.30
71801;HTU21D;59647;55.838;37.292;2022-12-15T15:54:21;-2.42;91.74
71801;HTU21D;59647;55.838;37.292;2022-12-15T15:56:47;-2.56;90.92
71801;HTU21D;59647;55.838;37.292;2022-12-15T15:59:15;-2.68;89.68
71801;HTU21D;59647;55.838;37.292;2022-12-15T16:01:42;-2.82;91.17
71801;HTU21D;59647;55.838;37.292;2022-12-15T16:04:09;-2.91;92.05
71801;HTU21D;59647;55.838;37.292;2022-12-15T16:06:35;-2.92;91.89
71801;HTU21D;59647;55.838;37.292;2022-12-15T16:09:01;-2.88;91.57
71801;HTU21D;59647;55.838;37.292;2022-12-15T16:11:28;-2.83;91.96
71801;HTU21D;59647;55.838;37.292;2022-12-15T16:13:57;-2.83;91.68
71801;HTU21D;59647;55.838;37.292;2022-12-15T16:16:26;-2.86;91.75
71801;HTU21D;59647;55.838;37.292;2022-12-15T16:18:54;-2.80;91.24
71801;HTU21D;59647;55.838;37.292;2022-12-15T16:21:23;-2.84;91.62
71801;HTU21D;59647;55.838;37.292;2022-12-15T16:23:49;-2.76;91.54
71801;HTU21D;59647;55.838;37.292;2022-12-15T16:26:21;-2.76;91.13
71801;HTU21D;59647;55.838;37.292;2022-12-15T16:28:49;-2.79;91.55
71801;HTU21D;59647;55.838;37.292;2022-12-15T16:31:30;-2.69;91.41
71801;HTU21D;59647;55.838;37.292;2022-12-15T16:33:56;-2.69;90.93
71801;HTU21D;59647;55.838;37.292;2022-12-15T16:36:22;-2.72;91.02
71801;HTU21D;59647;55.838;37.292;2022-12-15T16:38:49;-2.71;90.92
71801;HTU21D;59647;55.838;37.292;2022-12-15T16:41:16;-2.66;91.39
71801;HTU21D;59647;55.838;37.292;2022-12-15T16:43:42;-2.60;90.76
71801;HTU21D;59647;55.838;37.292;2022-12-15T16:46:12;-2.62;90.37
71801;HTU21D;59647;55.838;37.292;2022-12-15T16:48:39;-2.61;90.53
71801;HTU21D;59647;55.838;37.292;2022-12-15T16:51:07;-2.61;90.39
71801;HTU21D;59647;55.838;37.292;2022-12-15T16:53:36;-2.69;89.96
71801;HTU21D;59647;55.838;37.292;2022-12-15T16:56:07;-2.63;90.67
71801;HTU21D;59647;55.838;37.292;2022-12-15T16:58:36;-2.76;90.37
71801;HTU21D;59647;55.838;37.292;2022-12-15T17:01:02;-2.77;90.64
71801;HTU21D;59647;55.838;37.292;2022-12-15T17:03:28;-2.78;90.50
71801;HTU21D;59647;55.838;37.292;2022-12-15T17:05:57;-2.86;90.57
71801;HTU21D;59647;55.838;37.292;2022-12-15T17:08:42;-2.89;90.64
71801;HTU21D;59647;55.838;37.292;2022-12-15T17:11:20;-2.81;91.24
71801;HTU21D;59647;55.838;37.292;2022-12-15T17:13:48;-2.84;90.82
71801;HTU21D;59647;55.838;37.292;2022-12-15T17:16:20;-2.87;90.64
71801;HTU21D;59647;55.838;37.292;2022-12-15T17:18:47;-2.90;90.14
71801;HTU21D;59647;55.838;37.292;2022-12-15T17:23:47;-2.92;90.70
71801;HTU21D;59647;55.838;37.292;2022-12-15T17:26:20;-2.93;89.82
71801;HTU21D;59647;55.838;37.292;2022-12-15T17:28:48;-3.01;89.42
71801;HTU21D;59647;55.838;37.292;2022-12-15T17:31:19;-3.05;90.19
71801;HTU21D;59647;55.838;37.292;2022-12-15T17:33:45;-3.05;91.92
71801;HTU21D;59647;55.838;37.292;2022-12-15T17:36:24;-3.16;91.18
71801;HTU21D;59647;55.838;37.292;2022-12-15T17:38:55;-3.15;92.41
71801;HTU21D;59647;55.838;37.292;2022-12-15T17:41:21;-3.09;93.08
71801;HTU21D;59647;55.838;37.292;2022-12-15T17:43:48;-3.02;92.75
71801;HTU21D;59647;55.838;37.292;2022-12-15T17:46:14;-2.96;93.08
71801;HTU21D;59647;55.838;37.292;2022-12-15T17:48:40;-2.90;94.30
71801;HTU21D;59647;55.838;37.292;2022-12-15T17:51:16;-2.88;93.50
71801;HTU21D;59647;55.838;37.292;2022-12-15T17:53:44;-2.80;93.93
71801;HTU21D;59647;55.838;37.292;2022-12-15T17:56:11;-2.79;93.27
71801;HTU21D;59647;55.838;37.292;2022-12-15T17:58:37;-2.75;93.62
71801;HTU21D;59647;55.838;37.292;2022-12-15T18:01:04;-2.72;93.37
71801;HTU21D;59647;55.838;37.292;2022-12-15T18:03:30;-2.77;94.66